createdAt,value
2018-01-28T00:02:20.851Z,7.85
2018-01-28T00:04:49.147Z,7.85
2018-01-28T00:07:17.455Z,7.76
2018-01-28T00:09:45.742Z,7.56
2018-01-28T00:12:14.016Z,7.62
2018-01-28T00:14:42.306Z,7.71
2018-01-28T00:17:10.566Z,7.72
2018-01-28T00:19:38.862Z,7.55
2018-01-28T00:22:07.129Z,7.56
2018-01-28T00:24:35.436Z,7.54
2018-01-28T00:27:03.701Z,7.42
2018-01-28T00:29:32.990Z,7.34
2018-01-28T00:32:01.311Z,7.34
2018-01-28T00:34:29.620Z,7.43
2018-01-28T00:36:57.974Z,7.48
2018-01-28T00:39:26.217Z,7.51
2018-01-28T00:41:54.590Z,7.61
2018-01-28T00:44:22.845Z,7.64
2018-01-28T00:46:51.136Z,7.65
2018-01-28T00:49:19.391Z,7.72
2018-01-28T00:51:47.756Z,7.59
2018-01-28T00:54:16.031Z,7.71
2018-01-28T00:56:44.279Z,7.62
2018-01-28T00:59:12.926Z,7.70
2018-01-28T01:01:41.168Z,7.61
2018-01-28T01:04:09.472Z,7.64
2018-01-28T01:06:37.733Z,7.69
2018-01-28T01:09:06.075Z,7.68
2018-01-28T01:11:34.353Z,7.66
2018-01-28T01:14:02.708Z,7.51
2018-01-28T01:16:31.004Z,7.30
2018-01-28T01:18:59.280Z,7.44
2018-01-28T01:21:27.643Z,7.43
2018-01-28T01:23:55.936Z,7.28
2018-01-28T01:26:24.931Z,7.33
2018-01-28T01:28:53.196Z,7.38
2018-01-28T01:31:21.519Z,7.27
2018-01-28T01:33:49.792Z,7.26
2018-01-28T01:36:18.066Z,7.15
2018-01-28T01:38:46.416Z,7.19
2018-01-28T01:41:14.715Z,7.22
2018-01-28T01:43:43.004Z,7.21
2018-01-28T01:46:11.275Z,7.09
2018-01-28T01:48:39.575Z,7.12
2018-01-28T01:51:07.851Z,7.21
2018-01-28T01:53:36.153Z,7.25
2018-01-28T01:56:04.399Z,7.14
2018-01-28T01:58:33.272Z,7.15
2018-01-28T02:01:01.602Z,7.16
2018-01-28T02:03:29.918Z,7.24
2018-01-28T02:05:58.204Z,7.29
2018-01-28T02:08:27.294Z,7.34
2018-01-28T02:10:55.587Z,7.37
2018-01-28T02:13:24.530Z,7.39
2018-01-28T02:15:52.835Z,7.23
2018-01-28T02:18:21.111Z,7.30
2018-01-28T02:20:49.399Z,7.17
2018-01-28T02:23:17.673Z,7.27
2018-01-28T02:25:45.960Z,7.24
2018-01-28T02:28:14.248Z,7.29
2018-01-28T02:30:42.503Z,7.33
2018-01-28T02:33:10.779Z,7.29
2018-01-28T02:35:39.051Z,7.34
2018-01-28T02:38:07.350Z,7.36
2018-01-28T02:40:35.611Z,7.21
2018-01-28T02:43:03.890Z,7.23
2018-01-28T02:45:32.159Z,7.18
2018-01-28T02:48:00.439Z,7.18
2018-01-28T02:50:28.707Z,7.18
2018-01-28T02:52:57.007Z,7.03
2018-01-28T02:55:25.259Z,7.23
2018-01-28T02:57:53.534Z,7.31
2018-01-28T03:00:21.831Z,7.28
2018-01-28T03:02:50.083Z,7.29
2018-01-28T03:05:18.363Z,7.21
2018-01-28T03:07:46.643Z,7.28
2018-01-28T03:10:14.918Z,7.30
2018-01-28T03:12:43.190Z,7.31
2018-01-28T03:15:11.470Z,7.28
2018-01-28T03:17:39.755Z,7.32
2018-01-28T03:20:08.023Z,7.34
2018-01-28T03:22:36.339Z,7.35
2018-01-28T03:25:04.605Z,7.25
2018-01-28T03:27:32.938Z,7.23
2018-01-28T03:30:01.187Z,7.23
2018-01-28T03:32:29.489Z,7.37
2018-01-28T03:34:57.750Z,7.34
2018-01-28T03:37:26.050Z,7.25
2018-01-28T03:39:54.323Z,7.35
2018-01-28T03:42:22.670Z,7.36
2018-01-28T03:44:50.954Z,7.37
2018-01-28T03:47:19.223Z,7.38
2018-01-28T03:49:47.525Z,7.38
2018-01-28T03:52:15.784Z,7.33
2018-01-28T03:54:44.130Z,7.23
2018-01-28T03:57:12.383Z,7.20
2018-01-28T03:59:40.672Z,7.25
2018-01-28T04:02:08.915Z,7.28
2018-01-28T04:04:37.216Z,7.28
2018-01-28T04:07:06.388Z,7.28
2018-01-28T04:09:34.684Z,7.29
2018-01-28T04:12:02.955Z,7.36
2018-01-28T04:14:31.214Z,7.35
2018-01-28T04:17:00.106Z,7.37
2018-01-28T04:19:28.362Z,7.35
2018-01-28T04:21:56.758Z,7.32
2018-01-28T04:24:25.010Z,7.30
2018-01-28T04:26:53.319Z,7.25
2018-01-28T04:29:21.592Z,7.39
2018-01-28T04:31:49.878Z,7.42
2018-01-28T04:34:18.139Z,7.44
2018-01-28T04:36:46.423Z,7.40
2018-01-28T04:39:14.715Z,7.41
2018-01-28T04:41:42.966Z,7.42
2018-01-28T04:44:11.245Z,7.41
2018-01-28T04:46:39.519Z,7.28
2018-01-28T04:49:07.789Z,7.29
2018-01-28T04:51:36.187Z,7.36
2018-01-28T04:54:04.474Z,7.40
2018-01-28T04:56:32.928Z,7.42
2018-01-28T04:59:01.203Z,7.41
2018-01-28T05:01:29.482Z,7.40
2018-01-28T05:03:57.762Z,7.48
2018-01-28T05:06:26.082Z,7.45
2018-01-28T05:08:54.338Z,7.51
2018-01-28T05:11:23.419Z,7.47
2018-01-28T05:13:51.691Z,7.51
2018-01-28T05:16:20.381Z,7.54
2018-01-28T05:18:48.610Z,7.53
2018-01-28T05:21:18.173Z,7.37
2018-01-28T05:23:46.434Z,7.39
2018-01-28T05:26:15.674Z,7.38
2018-01-28T05:28:43.975Z,7.36
2018-01-28T05:31:12.723Z,7.34
2018-01-28T05:33:41.018Z,7.36
2018-01-28T05:36:09.291Z,7.43
2018-01-28T05:38:37.571Z,7.47
2018-01-28T05:41:05.892Z,7.47
2018-01-28T05:43:34.176Z,7.45
2018-01-28T05:46:02.477Z,7.49
2018-01-28T05:48:30.748Z,7.38
2018-01-28T05:50:59.897Z,7.44
2018-01-28T05:53:28.249Z,7.46
2018-01-28T05:55:56.495Z,7.22
2018-01-28T05:58:24.744Z,7.37
2018-01-28T06:00:53.024Z,7.43
2018-01-28T06:03:21.307Z,7.45
2018-01-28T06:05:49.611Z,7.46
2018-01-28T06:08:17.863Z,7.49
2018-01-28T06:10:46.175Z,7.53
2018-01-28T06:13:14.415Z,7.49
2018-01-28T06:15:42.743Z,7.53
2018-01-28T06:18:11.993Z,7.52
2018-01-28T06:20:40.226Z,7.45
2018-01-28T06:23:08.532Z,7.34
2018-01-28T06:25:36.827Z,7.50
2018-01-28T06:28:05.117Z,7.45
2018-01-28T06:30:33.368Z,7.38
2018-01-28T06:33:02.582Z,7.44
2018-01-28T06:35:30.838Z,7.45
2018-01-28T06:37:59.145Z,7.37
2018-01-28T06:40:27.391Z,7.44
2018-01-28T06:42:55.685Z,7.45
2018-01-28T06:45:24.281Z,7.39
2018-01-28T06:47:52.601Z,7.39
2018-01-28T06:50:21.116Z,7.37
2018-01-28T06:52:49.394Z,7.39
2018-01-28T06:55:17.694Z,7.37
2018-01-28T06:57:45.942Z,7.34
2018-01-28T07:00:14.227Z,7.38
2018-01-28T07:02:42.483Z,7.45
2018-01-28T07:05:12.404Z,7.45
2018-01-28T07:07:40.818Z,7.36
2018-01-28T07:10:33.370Z,7.42
2018-01-28T07:13:03.040Z,7.47
2018-01-28T07:15:31.307Z,7.46
2018-01-28T07:18:04.633Z,7.48
2018-01-28T07:20:32.900Z,7.53
2018-01-28T07:23:01.182Z,7.44
2018-01-28T07:25:29.431Z,7.47
2018-01-28T07:27:57.707Z,7.51
2018-01-28T07:30:25.984Z,7.51
2018-01-28T07:32:54.266Z,7.52
2018-01-28T07:35:22.552Z,7.51
2018-01-28T07:37:50.821Z,7.43
2018-01-28T07:40:19.100Z,7.47
2018-01-28T07:42:47.410Z,7.48
2018-01-28T07:45:15.666Z,7.51
2018-01-28T07:47:43.960Z,7.51
2018-01-28T07:50:12.201Z,7.40
2018-01-28T07:52:40.466Z,7.41
2018-01-28T07:55:08.751Z,7.49
2018-01-28T07:57:37.019Z,7.46
2018-01-28T08:00:05.303Z,7.53
2018-01-28T08:02:33.571Z,7.56
2018-01-28T08:05:01.850Z,7.48
2018-01-28T08:07:30.122Z,7.56
2018-01-28T08:10:19.133Z,7.56
2018-01-28T08:12:48.194Z,7.53
2018-01-28T08:15:16.477Z,7.60
2018-01-28T08:17:44.751Z,7.63
2018-01-28T08:20:13.080Z,7.67
2018-01-28T08:22:41.350Z,7.67
2018-01-28T08:25:09.652Z,7.64
2018-01-28T08:27:38.256Z,7.63
2018-01-28T08:30:06.521Z,7.61
2018-01-28T08:32:34.926Z,7.64
2018-01-28T08:35:03.189Z,7.67
2018-01-28T08:37:31.476Z,7.68
2018-01-28T08:39:59.733Z,7.64
2018-01-28T08:42:28.023Z,7.67
2018-01-28T08:44:56.279Z,7.72
2018-01-28T08:47:24.584Z,7.75
2018-01-28T08:49:52.858Z,7.67
2018-01-28T08:52:21.150Z,7.72
2018-01-28T08:54:49.387Z,7.73
2018-01-28T08:57:17.663Z,7.74
2018-01-28T08:59:45.942Z,7.70
2018-01-28T09:02:14.208Z,7.74
2018-01-28T09:04:42.595Z,7.64
2018-01-28T09:07:10.870Z,7.63
2018-01-28T09:09:39.167Z,7.68
2018-01-28T09:12:07.416Z,7.70
2018-01-28T09:14:35.699Z,7.74
2018-01-28T09:17:03.973Z,7.75
2018-01-28T09:19:32.251Z,7.78
2018-01-28T09:22:01.491Z,7.90
2018-01-28T09:24:29.763Z,7.89
2018-01-28T09:26:58.058Z,7.83
2018-01-28T09:29:26.344Z,7.76
2018-01-28T09:31:54.685Z,7.66
2018-01-28T09:34:23.660Z,7.79
2018-01-28T09:36:52.002Z,7.74
2018-01-28T09:39:20.326Z,7.83
2018-01-28T09:41:48.590Z,7.86
2018-01-28T09:44:16.923Z,7.86
2018-01-28T09:46:45.226Z,7.83
2018-01-28T09:49:13.521Z,7.88
2018-01-28T09:51:41.797Z,7.92
2018-01-28T09:54:10.076Z,7.95
2018-01-28T09:56:38.335Z,8.07
2018-01-28T09:59:06.655Z,8.06
2018-01-28T10:01:34.919Z,7.93
2018-01-28T10:04:03.229Z,8.07
2018-01-28T10:06:31.479Z,8.05
2018-01-28T10:08:59.781Z,8.08
2018-01-28T10:11:28.020Z,8.10
2018-01-28T10:13:56.579Z,8.03
2018-01-28T10:16:24.869Z,8.11
2018-01-28T10:18:53.130Z,8.12
2018-01-28T10:21:21.411Z,8.03
2018-01-28T10:23:49.680Z,7.89
2018-01-28T10:26:17.963Z,8.00
2018-01-28T10:28:46.233Z,8.03
2018-01-28T10:31:14.514Z,8.11
2018-01-28T10:33:42.788Z,8.14
2018-01-28T10:36:11.071Z,8.16
2018-01-28T10:38:39.332Z,8.19
2018-01-28T10:41:07.638Z,8.13
2018-01-28T10:43:35.907Z,8.14
2018-01-28T10:46:04.203Z,8.11
2018-01-28T10:48:32.467Z,8.18
2018-01-28T10:51:00.743Z,8.23
2018-01-28T10:53:28.995Z,8.25
2018-01-28T10:55:57.295Z,8.29
2018-01-28T10:58:25.548Z,8.31
2018-01-28T11:00:53.844Z,8.18
2018-01-28T11:03:22.137Z,8.18
2018-01-28T11:05:50.389Z,8.25
2018-01-28T11:08:18.662Z,8.35
2018-01-28T11:10:47.251Z,8.48
2018-01-28T11:13:15.539Z,8.52
2018-01-28T11:15:43.798Z,8.67
2018-01-28T11:18:12.086Z,8.74
2018-01-28T11:20:40.379Z,8.76
2018-01-28T11:23:09.430Z,8.69
2018-01-28T11:25:37.706Z,8.74
2018-01-28T11:28:05.960Z,8.69
2018-01-28T11:30:34.257Z,8.63
2018-01-28T11:33:02.521Z,8.59
2018-01-28T11:35:30.825Z,8.62
2018-01-28T11:37:59.088Z,8.58
2018-01-28T11:40:27.384Z,8.60
2018-01-28T11:42:55.642Z,8.70
2018-01-28T11:45:24.543Z,8.77
2018-01-28T11:47:52.804Z,8.83
2018-01-28T11:50:21.080Z,8.81
2018-01-28T11:52:49.363Z,8.78
2018-01-28T11:55:19.472Z,8.86
2018-01-28T11:57:47.741Z,8.91
2018-01-28T12:00:16.060Z,8.92
2018-01-28T12:02:44.935Z,9.00
2018-01-28T12:05:13.344Z,9.02
2018-01-28T12:07:42.491Z,9.07
2018-01-28T12:10:10.826Z,9.01
2018-01-28T12:12:39.368Z,8.95
2018-01-28T12:15:07.733Z,8.92
2018-01-28T12:17:36.082Z,8.98
2018-01-28T12:20:04.563Z,8.90
2018-01-28T12:22:32.875Z,8.87
2018-01-28T12:25:01.192Z,8.92
2018-01-28T12:27:29.460Z,8.91
2018-01-28T12:29:58.740Z,9.00
2018-01-28T12:32:27.151Z,8.90
2018-01-28T12:34:56.323Z,8.97
2018-01-28T12:37:24.579Z,8.99
2018-01-28T12:39:52.879Z,9.06
2018-01-28T12:42:21.160Z,9.07
2018-01-28T12:44:49.514Z,9.06
2018-01-28T12:47:17.791Z,9.21
2018-01-28T12:49:46.063Z,9.24
2018-01-28T12:52:14.362Z,9.30
2018-01-28T12:54:42.614Z,9.40
2018-01-28T12:57:11.450Z,9.30
2018-01-28T12:59:39.718Z,9.18
2018-01-28T13:02:08.051Z,9.26
2018-01-28T13:04:36.304Z,9.31
2018-01-28T13:07:04.620Z,9.25
2018-01-28T13:09:32.880Z,9.35
2018-01-28T13:12:01.162Z,9.28
2018-01-28T13:14:29.460Z,9.23
2018-01-28T13:16:57.714Z,8.66
2018-01-28T13:19:26.042Z,9.33
2018-01-28T13:21:54.326Z,9.38
2018-01-28T13:24:22.593Z,9.32
2018-01-28T13:26:50.883Z,9.31
2018-01-28T13:29:19.165Z,9.34
2018-01-28T13:31:47.439Z,9.34
2018-01-28T13:34:15.715Z,9.31
2018-01-28T13:36:44.022Z,9.37
2018-01-28T13:39:12.297Z,9.35
2018-01-28T13:41:40.574Z,9.39
2018-01-28T13:44:10.085Z,9.39
2018-01-28T13:46:39.550Z,9.34
2018-01-28T13:49:07.819Z,9.27
2018-01-28T13:51:36.125Z,9.26
2018-01-28T13:54:04.417Z,9.25
2018-01-28T13:56:32.771Z,9.36
2018-01-28T13:59:01.095Z,9.37
2018-01-28T14:01:29.552Z,9.22
2018-01-28T14:03:58.120Z,9.17
2018-01-28T14:06:26.389Z,9.27
2018-01-28T14:08:54.681Z,9.25
2018-01-28T14:11:22.963Z,9.32
2018-01-28T14:13:51.239Z,9.20
2018-01-28T14:16:20.436Z,9.21
2018-01-28T14:18:48.731Z,9.26
2018-01-28T14:21:18.371Z,9.24
2018-01-28T14:23:46.699Z,9.30
2018-01-28T14:26:15.002Z,9.28
2018-01-28T14:28:43.353Z,9.35
2018-01-28T14:31:11.972Z,9.33
2018-01-28T14:33:40.310Z,9.32
2018-01-28T14:36:08.650Z,9.37
2018-01-28T14:38:37.014Z,9.26
2018-01-28T14:41:05.301Z,9.29
2018-01-28T14:43:33.541Z,9.36
2018-01-28T14:46:01.896Z,9.31
2018-01-28T14:48:30.144Z,9.36
2018-01-28T14:50:58.448Z,9.29
2018-01-28T14:53:26.732Z,9.14
2018-01-28T14:55:55.012Z,9.23
2018-01-28T14:58:23.336Z,9.27
2018-01-28T15:00:51.592Z,9.23
2018-01-28T15:03:20.205Z,9.17
2018-01-28T15:05:48.768Z,9.19
2018-01-28T15:08:17.256Z,9.16
2018-01-28T15:10:46.832Z,9.13
2018-01-28T15:13:15.084Z,9.13
2018-01-28T15:15:43.383Z,9.12
2018-01-28T15:18:11.690Z,9.13
2018-01-28T15:20:39.934Z,9.14
2018-01-28T15:23:08.213Z,9.13
2018-01-28T15:25:36.503Z,9.18
2018-01-28T15:28:04.784Z,9.14
2018-01-28T15:30:33.102Z,9.14
2018-01-28T15:33:01.375Z,9.11
2018-01-28T15:35:29.710Z,9.17
2018-01-28T15:37:57.963Z,9.16
2018-01-28T15:40:26.351Z,9.19
2018-01-28T15:42:54.573Z,9.30
2018-01-28T15:45:22.863Z,9.35
2018-01-28T15:47:51.126Z,9.34
2018-01-28T15:50:19.420Z,9.31
2018-01-28T15:52:47.693Z,9.25
2018-01-28T15:55:15.962Z,9.17
2018-01-28T15:57:44.234Z,9.39
2018-01-28T16:00:12.494Z,9.31
2018-01-28T16:02:40.791Z,9.34
2018-01-28T16:05:09.038Z,9.43
2018-01-28T16:07:37.332Z,9.36
2018-01-28T16:10:05.612Z,9.37
2018-01-28T16:12:34.033Z,9.38
2018-01-28T16:15:02.279Z,9.34
2018-01-28T16:17:30.570Z,9.33
2018-01-28T16:19:58.838Z,9.29
2018-01-28T16:22:27.128Z,9.29
2018-01-28T16:24:55.388Z,9.27
2018-01-28T16:27:23.667Z,9.32
2018-01-28T16:29:51.964Z,9.32
2018-01-28T16:32:20.215Z,9.36
2018-01-28T16:34:48.486Z,9.38
2018-01-28T16:37:16.800Z,9.40
2018-01-28T16:39:45.094Z,9.33
2018-01-28T16:42:13.372Z,9.28
2018-01-28T16:44:42.245Z,9.33
2018-01-28T16:47:10.514Z,9.33
2018-01-28T16:49:38.893Z,9.42
2018-01-28T16:52:07.169Z,9.42
2018-01-28T16:54:35.444Z,9.42
2018-01-28T16:57:03.697Z,9.35
2018-01-28T16:59:31.984Z,9.48
2018-01-28T17:02:00.241Z,9.48
2018-01-28T17:04:28.538Z,9.44
2018-01-28T17:06:56.820Z,9.47
2018-01-28T17:09:25.068Z,9.59
2018-01-28T17:11:53.374Z,9.64
2018-01-28T17:14:21.664Z,9.63
2018-01-28T17:16:51.535Z,9.64
2018-01-28T17:19:19.787Z,9.68
2018-01-28T17:21:48.071Z,9.66
2018-01-28T17:24:16.347Z,9.70
2018-01-28T17:26:44.662Z,9.70
2018-01-28T17:29:12.923Z,9.63
2018-01-28T17:31:41.222Z,9.72
2018-01-28T17:34:09.485Z,9.76
2018-01-28T17:36:37.738Z,9.69
2018-01-28T17:39:06.023Z,9.68
2018-01-28T17:41:34.345Z,9.67
2018-01-28T17:44:03.340Z,9.69
2018-01-28T17:46:34.018Z,9.74
2018-01-28T17:49:02.271Z,9.74
2018-01-28T17:51:30.540Z,9.76
2018-01-28T17:53:58.880Z,9.75
2018-01-28T17:56:27.109Z,9.76
2018-01-28T17:58:56.479Z,9.76
2018-01-28T18:01:24.809Z,9.73
2018-01-28T18:06:28.272Z,9.77
2018-01-28T18:08:56.629Z,9.84
2018-01-28T18:11:25.039Z,9.84
2018-01-28T18:13:53.667Z,9.87
2018-01-28T18:16:22.021Z,9.88
2018-01-28T18:18:50.629Z,9.76
2018-01-28T18:21:18.938Z,9.69
2018-01-28T18:23:47.225Z,9.67
2018-01-28T18:26:15.580Z,9.65
2018-01-28T18:28:43.967Z,9.73
2018-01-28T18:31:12.308Z,9.69
2018-01-28T18:33:40.575Z,9.65
2018-01-28T18:36:08.914Z,9.66
2018-01-28T18:38:37.160Z,8.98
2018-01-28T18:41:05.526Z,9.76
2018-01-28T18:43:33.835Z,9.72
2018-01-28T18:46:02.402Z,9.72
2018-01-28T18:48:30.682Z,9.67
2018-01-28T18:50:58.963Z,9.67
2018-01-28T18:56:02.514Z,9.63
2018-01-28T18:58:31.245Z,9.73
2018-01-28T19:00:59.511Z,9.64
2018-01-28T19:03:27.815Z,9.60
2018-01-28T19:05:56.523Z,9.73
2018-01-28T19:08:24.874Z,9.68
2018-01-28T19:10:53.152Z,9.69
2018-01-28T19:13:21.424Z,9.69
2018-01-28T19:15:49.684Z,9.64
2018-01-28T19:18:17.969Z,9.67
2018-01-28T19:20:46.250Z,9.65
2018-01-28T19:23:14.531Z,9.68
2018-01-28T19:25:42.880Z,9.71
2018-01-28T19:28:11.161Z,9.76
2018-01-28T19:30:39.462Z,9.77
2018-01-28T19:33:07.746Z,9.73
2018-01-28T19:35:36.247Z,9.80
2018-01-28T19:38:04.685Z,9.81
2018-01-28T19:40:33.790Z,9.79
2018-01-28T19:43:02.082Z,9.73
2018-01-28T19:45:30.353Z,9.67
2018-01-28T19:47:58.668Z,9.65
2018-01-28T19:50:26.910Z,9.66
2018-01-28T19:52:56.166Z,9.70
2018-01-28T19:55:24.990Z,9.63
2018-01-28T19:57:53.493Z,9.72
2018-01-28T20:00:21.791Z,9.60
2018-01-28T20:02:50.904Z,9.64
2018-01-28T20:05:19.211Z,9.69
2018-01-28T20:07:47.539Z,9.61
2018-01-28T20:10:16.078Z,9.69
2018-01-28T20:12:45.277Z,9.76
2018-01-28T20:15:13.553Z,9.71
2018-01-28T20:17:41.884Z,9.79
2018-01-28T20:20:10.199Z,9.73
2018-01-28T20:22:38.493Z,9.72
2018-01-28T20:25:06.806Z,9.72
2018-01-28T20:27:35.076Z,9.79
2018-01-28T20:30:04.017Z,9.82
2018-01-28T20:32:32.275Z,9.81
2018-01-28T20:35:00.576Z,9.64
2018-01-28T20:37:28.970Z,9.58
2018-01-28T20:39:57.277Z,9.60
2018-01-28T20:42:25.555Z,9.60
2018-01-28T20:44:53.920Z,9.62
2018-01-28T20:47:22.188Z,9.60
2018-01-28T20:49:50.487Z,9.60
2018-01-28T20:52:18.822Z,9.58
2018-01-28T20:54:47.936Z,9.55
2018-01-28T20:57:16.679Z,9.53
2018-01-28T20:59:44.976Z,9.59
2018-01-28T21:02:13.247Z,9.45
2018-01-28T21:04:41.578Z,9.59
2018-01-28T21:07:09.860Z,9.62
2018-01-28T21:09:38.125Z,9.63
2018-01-28T21:12:06.418Z,9.67
2018-01-28T21:14:34.674Z,9.65
2018-01-28T21:17:02.956Z,9.66
2018-01-28T21:19:32.131Z,9.49
2018-01-28T21:22:00.459Z,9.55
2018-01-28T21:24:28.975Z,9.52
2018-01-28T21:26:57.231Z,9.57
2018-01-28T21:29:25.550Z,9.66
2018-01-28T21:31:54.635Z,9.70
2018-01-28T21:34:22.962Z,9.69
2018-01-28T21:36:51.484Z,9.63
2018-01-28T21:39:19.842Z,9.68
2018-01-28T21:41:48.087Z,9.74
2018-01-28T21:44:16.564Z,9.63
2018-01-28T21:46:44.921Z,9.61
2018-01-28T21:49:14.403Z,9.52
2018-01-28T21:51:42.779Z,9.56
2018-01-28T21:54:11.056Z,9.66
2018-01-28T21:56:39.570Z,9.66
2018-01-28T21:59:07.909Z,9.64
2018-01-28T22:01:36.240Z,9.60
2018-01-28T22:04:04.844Z,9.60
2018-01-28T22:06:33.116Z,9.55
2018-01-28T22:09:02.150Z,9.53
2018-01-28T22:11:30.423Z,9.51
2018-01-28T22:13:58.670Z,9.59
2018-01-28T22:16:26.969Z,9.61
2018-01-28T22:18:55.222Z,9.57
2018-01-28T22:21:23.900Z,9.59
2018-01-28T22:23:52.158Z,9.55
2018-01-28T22:26:20.444Z,9.54
2018-01-28T22:28:48.947Z,9.53
2018-01-28T22:31:17.224Z,9.55
2018-01-28T22:33:45.468Z,9.52
2018-01-28T22:36:13.767Z,9.49
2018-01-28T22:38:42.023Z,9.43
2018-01-28T22:41:10.317Z,9.49
2018-01-28T22:43:39.216Z,9.47
2018-01-28T22:46:07.538Z,9.38
2018-01-28T22:48:35.929Z,9.27
2018-01-28T22:51:05.130Z,9.31
2018-01-28T22:53:33.379Z,9.26
2018-01-28T22:56:01.772Z,9.31
2018-01-28T22:58:30.035Z,9.29
2018-01-28T23:00:58.301Z,9.32
2018-01-28T23:03:26.610Z,9.25
2018-01-28T23:05:54.852Z,9.33
2018-01-28T23:08:23.271Z,9.32
2018-01-28T23:10:52.197Z,9.34
2018-01-28T23:13:20.475Z,9.32
2018-01-28T23:15:48.789Z,9.35
2018-01-28T23:18:17.136Z,9.34
2018-01-28T23:20:45.512Z,9.27
2018-01-28T23:23:13.777Z,9.20
2018-01-28T23:25:42.062Z,9.21
2018-01-28T23:28:10.330Z,9.32
2018-01-28T23:30:38.617Z,9.36
2018-01-28T23:33:06.892Z,9.38
2018-01-28T23:35:35.204Z,9.31
2018-01-28T23:38:03.509Z,9.31
2018-01-28T23:40:31.807Z,9.32
2018-01-28T23:43:00.113Z,9.28
2018-01-28T23:45:28.388Z,9.30
2018-01-28T23:47:56.667Z,9.28
2018-01-28T23:50:24.954Z,9.28
2018-01-28T23:52:53.259Z,9.37
2018-01-28T23:55:21.542Z,9.37
2018-01-28T23:57:49.886Z,9.50
